sensor_id;sensor_type;location;lat;lon;timestamp;pressure;altitude;pressure_sealevel;temperature;humidity
31585;BME280;18191;51.288;12.390;2022-12-18T00:01:20;49195.84;;;-144.47;82.74
31585;BME280;18191;51.288;12.390;2022-12-18T00:06:10;49199.81;;;-144.47;83.09
31585;BME280;18191;51.288;12.390;2022-12-18T00:11:05;49239.59;;;-144.47;83.50
31585;BME280;18191;51.288;12.390;2022-12-18T00:15:55;49203.78;;;-144.47;82.95
31585;BME280;18191;51.288;12.390;2022-12-18T00:20:51;49177.94;;;-144.47;82.85
31585;BME280;18191;51.288;12.390;2022-12-18T00:25:41;49166.00;;;-144.47;82.31
31585;BME280;18191;51.288;12.390;2022-12-18T00:30:31;49191.84;;;-144.47;82.14
31585;BME280;18191;51.288;12.390;2022-12-18T00:35:21;49235.63;;;-144.47;81.61
31585;BME280;18191;51.288;12.390;2022-12-18T00:40:11;49169.97;;;-144.47;82.42
31585;BME280;18191;51.288;12.390;2022-12-18T00:45:02;49179.91;;;-144.47;82.75
31585;BME280;18191;51.288;12.390;2022-12-18T00:49:52;49167.97;;;-144.47;82.40
31585;BME280;18191;51.288;12.390;2022-12-18T00:54:43;49152.06;;;-144.47;81.97
31585;BME280;18191;51.288;12.390;2022-12-18T00:59:33;49187.88;;;-144.47;82.46
31585;BME280;18191;51.288;12.390;2022-12-18T01:04:23;49205.78;;;-144.47;82.04
31585;BME280;18191;51.288;12.390;2022-12-18T01:09:19;49187.88;;;-144.47;81.72
31585;BME280;18191;51.288;12.390;2022-12-18T01:14:10;49158.03;;;-144.47;81.32
31585;BME280;18191;51.288;12.390;2022-12-18T01:19:00;49173.94;;;-144.47;81.91
31585;BME280;18191;51.288;12.390;2022-12-18T01:23:51;49199.81;;;-144.47;81.54
31585;BME280;18191;51.288;12.390;2022-12-18T01:28:41;49167.97;;;-144.47;82.24
31585;BME280;18191;51.288;12.390;2022-12-18T01:33:32;49219.72;;;-144.47;82.08
31585;BME280;18191;51.288;12.390;2022-12-18T01:38:22;49160.03;;;-144.47;82.37
31585;BME280;18191;51.288;12.390;2022-12-18T01:43:12;49183.91;;;-144.47;81.52
31585;BME280;18191;51.288;12.390;2022-12-18T01:48:03;49207.78;;;-144.47;81.31
31585;BME280;18191;51.288;12.390;2022-12-18T01:52:56;49167.97;;;-144.47;80.96
31585;BME280;18191;51.288;12.390;2022-12-18T01:57:47;49203.78;;;-144.47;80.97
31585;BME280;18191;51.288;12.390;2022-12-18T02:02:40;49144.09;;;-144.47;82.18
31585;BME280;18191;51.288;12.390;2022-12-18T02:07:34;49205.78;;;-144.47;82.29
31585;BME280;18191;51.288;12.390;2022-12-18T02:12:33;49207.78;;;-144.47;82.82
31585;BME280;18191;51.288;12.390;2022-12-18T02:17:28;49191.84;;;-144.47;84.12
31585;BME280;18191;51.288;12.390;2022-12-18T02:22:26;49197.81;;;-144.47;83.95
31585;BME280;18191;51.288;12.390;2022-12-18T02:27:19;49191.84;;;-144.47;84.51
31585;BME280;18191;51.288;12.390;2022-12-18T02:32:11;49187.88;;;-144.47;84.85
31585;BME280;18191;51.288;12.390;2022-12-18T02:37:04;49148.09;;;-144.47;85.98
31585;BME280;18191;51.288;12.390;2022-12-18T02:41:56;49183.91;;;-144.47;86.55
31585;BME280;18191;51.288;12.390;2022-12-18T02:46:48;49167.97;;;-144.47;86.63
31585;BME280;18191;51.288;12.390;2022-12-18T02:52:03;49179.91;;;-144.47;86.60
31585;BME280;18191;51.288;12.390;2022-12-18T02:56:51;49191.84;;;-144.47;86.40
31585;BME280;18191;51.288;12.390;2022-12-18T03:06:39;49185.88;;;-144.47;86.92
31585;BME280;18191;51.288;12.390;2022-12-18T03:11:31;49187.88;;;-144.47;85.98
31585;BME280;18191;51.288;12.390;2022-12-18T03:16:41;49195.84;;;-144.47;85.98
31585;BME280;18191;51.288;12.390;2022-12-18T03:21:43;49173.94;;;-144.47;85.71
31585;BME280;18191;51.288;12.390;2022-12-18T03:26:35;49187.88;;;-144.47;86.09
31585;BME280;18191;51.288;12.390;2022-12-18T03:31:27;49199.81;;;-144.47;86.08
31585;BME280;18191;51.288;12.390;2022-12-18T03:36:18;49187.88;;;-144.47;86.46
31585;BME280;18191;51.288;12.390;2022-12-18T03:46:14;49207.78;;;-144.47;86.47
31585;BME280;18191;51.288;12.390;2022-12-18T03:51:07;49179.91;;;-144.47;86.21
31585;BME280;18191;51.288;12.390;2022-12-18T03:56:00;49187.88;;;-144.47;84.35
31585;BME280;18191;51.288;12.390;2022-12-18T04:00:51;49175.94;;;-144.47;84.66
31585;BME280;18191;51.288;12.390;2022-12-18T04:05:42;49162.00;;;-144.47;84.27
31585;BME280;18191;51.288;12.390;2022-12-18T04:10:33;49189.88;;;-144.47;83.23
31585;BME280;18191;51.288;12.390;2022-12-18T04:15:24;49195.84;;;-144.47;83.51
31585;BME280;18191;51.288;12.390;2022-12-18T04:20:14;49219.72;;;-144.47;82.69
31585;BME280;18191;51.288;12.390;2022-12-18T04:25:04;49167.97;;;-144.47;83.09
31585;BME280;18191;51.288;12.390;2022-12-18T04:29:54;49207.78;;;-144.47;83.38
31585;BME280;18191;51.288;12.390;2022-12-18T04:34:45;49195.84;;;-144.47;83.83
31585;BME280;18191;51.288;12.390;2022-12-18T04:39:49;49183.91;;;-144.47;84.08
31585;BME280;18191;51.288;12.390;2022-12-18T04:44:39;49181.91;;;-144.47;84.25
31585;BME280;18191;51.288;12.390;2022-12-18T04:49:29;49203.78;;;-144.47;82.81
31585;BME280;18191;51.288;12.390;2022-12-18T04:54:19;49181.91;;;-144.47;82.52
31585;BME280;18191;51.288;12.390;2022-12-18T04:59:10;49197.81;;;-144.47;83.50
31585;BME280;18191;51.288;12.390;2022-12-18T05:04:01;49175.94;;;-144.47;83.63
31585;BME280;18191;51.288;12.390;2022-12-18T05:08:51;49171.97;;;-144.47;84.01
31585;BME280;18191;51.288;12.390;2022-12-18T05:13:41;49175.94;;;-144.47;84.58
31585;BME280;18191;51.288;12.390;2022-12-18T05:18:38;49187.88;;;-144.47;85.14
31585;BME280;18191;51.288;12.390;2022-12-18T05:23:28;49183.91;;;-144.47;85.36
31585;BME280;18191;51.288;12.390;2022-12-18T05:28:19;49175.94;;;-144.47;85.16
31585;BME280;18191;51.288;12.390;2022-12-18T05:33:09;49160.03;;;-144.47;84.95
31585;BME280;18191;51.288;12.390;2022-12-18T05:37:59;49171.97;;;-144.47;85.31
31585;BME280;18191;51.288;12.390;2022-12-18T05:42:49;49199.81;;;-144.47;85.33
31585;BME280;18191;51.288;12.390;2022-12-18T05:47:39;49167.97;;;-144.47;85.26
31585;BME280;18191;51.288;12.390;2022-12-18T05:52:30;49185.88;;;-144.47;85.52
31585;BME280;18191;51.288;12.390;2022-12-18T05:57:20;49177.94;;;-144.47;86.02
31585;BME280;18191;51.288;12.390;2022-12-18T06:02:10;49237.59;;;-144.47;86.16
31585;BME280;18191;51.288;12.390;2022-12-18T06:07:03;49187.88;;;-144.47;85.84
31585;BME280;18191;51.288;12.390;2022-12-18T06:11:54;49179.91;;;-144.47;85.95
31585;BME280;18191;51.288;12.390;2022-12-18T06:16:44;49187.88;;;-144.47;86.26
31585;BME280;18191;51.288;12.390;2022-12-18T06:21:40;49183.91;;;-144.47;86.15
31585;BME280;18191;51.288;12.390;2022-12-18T06:26:38;49227.66;;;-144.47;86.39
31585;BME280;18191;51.288;12.390;2022-12-18T06:31:28;49203.78;;;-144.47;86.80
31585;BME280;18191;51.288;12.390;2022-12-18T06:36:18;49179.91;;;-144.47;86.67
31585;BME280;18191;51.288;12.390;2022-12-18T06:41:10;49183.91;;;-144.47;85.29
31585;BME280;18191;51.288;12.390;2022-12-18T06:46:01;49211.75;;;-144.47;85.08
31585;BME280;18191;51.288;12.390;2022-12-18T06:50:52;49166.00;;;-144.47;84.44
31585;BME280;18191;51.288;12.390;2022-12-18T06:55:42;49207.78;;;-144.47;84.60
31585;BME280;18191;51.288;12.390;2022-12-18T07:00:32;49183.91;;;-144.47;85.31
31585;BME280;18191;51.288;12.390;2022-12-18T07:05:23;49173.94;;;-144.47;84.13
31585;BME280;18191;51.288;12.390;2022-12-18T07:10:13;49183.91;;;-144.47;84.38
31585;BME280;18191;51.288;12.390;2022-12-18T07:15:03;49183.91;;;-144.47;84.20
31585;BME280;18191;51.288;12.390;2022-12-18T07:19:54;49167.97;;;-144.47;84.52
31585;BME280;18191;51.288;12.390;2022-12-18T07:24:44;49173.94;;;-144.47;84.50
31585;BME280;18191;51.288;12.390;2022-12-18T07:29:34;49171.97;;;-144.47;84.53
31585;BME280;18191;51.288;12.390;2022-12-18T07:34:25;49183.91;;;-144.47;84.20
31585;BME280;18191;51.288;12.390;2022-12-18T07:39:15;49164.00;;;-144.47;84.82
31585;BME280;18191;51.288;12.390;2022-12-18T07:44:05;49211.75;;;-144.47;84.87
31585;BME280;18191;51.288;12.390;2022-12-18T07:48:55;49175.94;;;-144.47;84.45
31585;BME280;18191;51.288;12.390;2022-12-18T07:53:46;49205.78;;;-144.47;84.31
31585;BME280;18191;51.288;12.390;2022-12-18T07:58:36;49156.03;;;-144.47;84.29
31585;BME280;18191;51.288;12.390;2022-12-18T08:03:26;49193.84;;;-144.47;84.58
31585;BME280;18191;51.288;12.390;2022-12-18T08:08:16;49179.91;;;-144.47;83.56
31585;BME280;18191;51.288;12.390;2022-12-18T08:13:07;49187.88;;;-144.47;83.81
31585;BME280;18191;51.288;12.390;2022-12-18T08:17:57;49203.78;;;-144.47;83.50
31585;BME280;18191;51.288;12.390;2022-12-18T08:22:47;49160.03;;;-144.47;83.53
31585;BME280;18191;51.288;12.390;2022-12-18T08:27:37;49142.13;;;-144.47;83.32
31585;BME280;18191;51.288;12.390;2022-12-18T08:32:28;49205.78;;;-144.47;82.91
31585;BME280;18191;51.288;12.390;2022-12-18T08:37:18;49175.94;;;-144.47;82.55
31585;BME280;18191;51.288;12.390;2022-12-18T08:42:08;49199.81;;;-144.47;81.85
31585;BME280;18191;51.288;12.390;2022-12-18T08:47:17;49171.97;;;-144.47;81.16
31585;BME280;18191;51.288;12.390;2022-12-18T08:52:07;49187.88;;;-144.47;81.88
31585;BME280;18191;51.288;12.390;2022-12-18T08:56:58;49164.00;;;-144.47;80.72
31585;BME280;18191;51.288;12.390;2022-12-18T09:01:49;49223.69;;;-144.47;80.05
31585;BME280;18191;51.288;12.390;2022-12-18T09:06:39;49195.84;;;-144.47;79.69
31585;BME280;18191;51.288;12.390;2022-12-18T09:11:30;49156.03;;;-144.47;79.57
31585;BME280;18191;51.288;12.390;2022-12-18T09:16:20;49171.97;;;-144.47;76.91
31585;BME280;18191;51.288;12.390;2022-12-18T09:21:15;49191.84;;;-144.47;77.19
31585;BME280;18191;51.288;12.390;2022-12-18T09:26:06;49144.09;;;-144.47;75.98
31585;BME280;18191;51.288;12.390;2022-12-18T09:30:56;49187.88;;;-144.47;76.42
31585;BME280;18191;51.288;12.390;2022-12-18T09:35:46;49193.84;;;-144.47;76.27
31585;BME280;18191;51.288;12.390;2022-12-18T09:40:40;49199.81;;;-144.47;76.83
31585;BME280;18191;51.288;12.390;2022-12-18T09:45:39;49156.03;;;-144.47;75.85
31585;BME280;18191;51.288;12.390;2022-12-18T09:50:32;49171.97;;;-144.47;75.52
31585;BME280;18191;51.288;12.390;2022-12-18T09:55:31;49162.00;;;-144.47;74.97
31585;BME280;18191;51.288;12.390;2022-12-18T10:00:24;49154.06;;;-144.47;75.26
31585;BME280;18191;51.288;12.390;2022-12-18T10:05:26;49175.94;;;-144.47;74.44
31585;BME280;18191;51.288;12.390;2022-12-18T10:10:33;49183.91;;;-144.47;72.16
31585;BME280;18191;51.288;12.390;2022-12-18T10:15:31;49191.84;;;-144.47;72.30
31585;BME280;18191;51.288;12.390;2022-12-18T10:20:27;49158.03;;;-144.47;70.86
31585;BME280;18191;51.288;12.390;2022-12-18T10:25:31;49183.91;;;-144.47;69.44
31585;BME280;18191;51.288;12.390;2022-12-18T10:30:24;49138.16;;;-144.47;71.62
31585;BME280;18191;51.288;12.390;2022-12-18T10:35:19;49183.91;;;-144.47;71.44
31585;BME280;18191;51.288;12.390;2022-12-18T10:40:16;49179.91;;;-144.47;70.91
31585;BME280;18191;51.288;12.390;2022-12-18T10:45:15;49175.94;;;-144.47;71.83
31585;BME280;18191;51.288;12.390;2022-12-18T10:50:11;49152.06;;;-144.47;70.81
31585;BME280;18191;51.288;12.390;2022-12-18T10:55:13;49162.00;;;-144.47;69.85
31585;BME280;18191;51.288;12.390;2022-12-18T11:00:20;49191.84;;;-144.47;67.87
31585;BME280;18191;51.288;12.390;2022-12-18T11:05:24;49191.84;;;-144.47;69.17
31585;BME280;18191;51.288;12.390;2022-12-18T11:10:20;49181.91;;;-144.47;68.66
31585;BME280;18191;51.288;12.390;2022-12-18T11:15:15;49144.09;;;-144.47;67.84
31585;BME280;18191;51.288;12.390;2022-12-18T11:20:06;49150.06;;;-144.47;69.00
31585;BME280;18191;51.288;12.390;2022-12-18T11:24:58;49167.97;;;-144.47;67.87
31585;BME280;18191;51.288;12.390;2022-12-18T11:29:49;49215.72;;;-144.47;67.14
31585;BME280;18191;51.288;12.390;2022-12-18T11:34:40;49164.00;;;-144.47;66.15
31585;BME280;18191;51.288;12.390;2022-12-18T11:39:45;49167.97;;;-144.47;66.24
31585;BME280;18191;51.288;12.390;2022-12-18T11:44:44;49156.03;;;-144.47;66.32
31585;BME280;18191;51.288;12.390;2022-12-18T11:49:36;49191.84;;;-144.47;66.16
31585;BME280;18191;51.288;12.390;2022-12-18T11:54:26;49171.97;;;-144.47;66.28
31585;BME280;18191;51.288;12.390;2022-12-18T11:59:38;49183.91;;;-144.47;65.53
31585;BME280;18191;51.288;12.390;2022-12-18T12:04:44;49160.03;;;-144.47;64.71
31585;BME280;18191;51.288;12.390;2022-12-18T12:30:03;49179.91;;;-144.47;65.36
31585;BME280;18191;51.288;12.390;2022-12-18T12:40:04;49136.16;;;-144.47;64.12
31585;BME280;18191;51.288;12.390;2022-12-18T12:44:55;49177.94;;;-144.47;64.21
31585;BME280;18191;51.288;12.390;2022-12-18T12:49:47;49152.06;;;-144.47;65.19
31585;BME280;18191;51.288;12.390;2022-12-18T12:54:37;49136.16;;;-144.47;64.33
31585;BME280;18191;51.288;12.390;2022-12-18T12:59:31;49156.03;;;-144.47;65.16
31585;BME280;18191;51.288;12.390;2022-12-18T13:09:31;49134.16;;;-144.47;65.26
31585;BME280;18191;51.288;12.390;2022-12-18T13:14:23;49167.97;;;-144.47;64.00
31585;BME280;18191;51.288;12.390;2022-12-18T13:19:23;49136.16;;;-144.47;64.24
31585;BME280;18191;51.288;12.390;2022-12-18T13:24:20;49183.91;;;-144.47;65.96
31585;BME280;18191;51.288;12.390;2022-12-18T13:29:12;49140.13;;;-144.47;65.58
31585;BME280;18191;51.288;12.390;2022-12-18T13:34:23;49189.88;;;-144.47;66.11
31585;BME280;18191;51.288;12.390;2022-12-18T13:49:25;49136.16;;;-144.47;66.32
31585;BME280;18191;51.288;12.390;2022-12-18T13:54:25;49191.84;;;-144.47;67.07
31585;BME280;18191;51.288;12.390;2022-12-18T14:04:16;49164.00;;;-144.47;68.70
31585;BME280;18191;51.288;12.390;2022-12-18T14:09:09;49179.91;;;-144.47;69.02
31585;BME280;18191;51.288;12.390;2022-12-18T14:14:00;49191.84;;;-144.47;69.69
31585;BME280;18191;51.288;12.390;2022-12-18T14:18:55;49183.91;;;-144.47;69.33
31585;BME280;18191;51.288;12.390;2022-12-18T14:23:46;49152.06;;;-144.47;69.58
31585;BME280;18191;51.288;12.390;2022-12-18T14:28:42;49173.94;;;-144.47;69.87
31585;BME280;18191;51.288;12.390;2022-12-18T14:33:33;49164.00;;;-144.47;71.11
31585;BME280;18191;51.288;12.390;2022-12-18T14:43:20;49156.03;;;-144.47;72.92
31585;BME280;18191;51.288;12.390;2022-12-18T14:53:20;49160.03;;;-144.47;73.63
31585;BME280;18191;51.288;12.390;2022-12-18T14:58:11;49164.00;;;-144.47;74.86
31585;BME280;18191;51.288;12.390;2022-12-18T15:03:05;49169.97;;;-144.47;75.19
31585;BME280;18191;51.288;12.390;2022-12-18T15:07:58;49199.81;;;-144.47;75.91
31585;BME280;18191;51.288;12.390;2022-12-18T15:17:45;49158.03;;;-144.47;76.59
31585;BME280;18191;51.288;12.390;2022-12-18T15:22:36;49183.91;;;-144.47;77.14
31585;BME280;18191;51.288;12.390;2022-12-18T15:32:19;49164.00;;;-144.47;78.16
31585;BME280;18191;51.288;12.390;2022-12-18T15:37:10;49156.03;;;-144.47;78.91
31585;BME280;18191;51.288;12.390;2022-12-18T15:42:00;49152.06;;;-144.47;78.99
31585;BME280;18191;51.288;12.390;2022-12-18T15:47:10;49156.03;;;-144.47;79.16
31585;BME280;18191;51.288;12.390;2022-12-18T15:52:01;49164.00;;;-144.47;79.30
31585;BME280;18191;51.288;12.390;2022-12-18T15:56:52;49158.03;;;-144.47;77.95
31585;BME280;18191;51.288;12.390;2022-12-18T16:02:00;49223.69;;;-144.47;76.71
31585;BME280;18191;51.288;12.390;2022-12-18T16:06:51;49156.03;;;-144.47;77.14
31585;BME280;18191;51.288;12.390;2022-12-18T16:11:44;49183.91;;;-144.47;76.83
31585;BME280;18191;51.288;12.390;2022-12-18T16:16:36;49152.06;;;-144.47;77.24
31585;BME280;18191;51.288;12.390;2022-12-18T16:21:26;49183.91;;;-144.47;77.70
31585;BME280;18191;51.288;12.390;2022-12-18T16:26:16;49199.81;;;-144.47;78.34
31585;BME280;18191;51.288;12.390;2022-12-18T16:31:06;49152.06;;;-144.47;78.94
31585;BME280;18191;51.288;12.390;2022-12-18T16:35:57;49144.09;;;-144.47;79.43
31585;BME280;18191;51.288;12.390;2022-12-18T16:40:53;49187.88;;;-144.47;79.41
31585;BME280;18191;51.288;12.390;2022-12-18T16:46:02;49144.09;;;-144.47;79.25
31585;BME280;18191;51.288;12.390;2022-12-18T16:50:58;49175.94;;;-144.47;77.37
31585;BME280;18191;51.288;12.390;2022-12-18T16:55:53;49136.16;;;-144.47;76.37
31585;BME280;18191;51.288;12.390;2022-12-18T17:00:43;49156.03;;;-144.47;76.08
31585;BME280;18191;51.288;12.390;2022-12-18T17:05:33;49179.91;;;-144.47;75.91
31585;BME280;18191;51.288;12.390;2022-12-18T17:10:24;49158.03;;;-144.47;75.30
31585;BME280;18191;51.288;12.390;2022-12-18T17:15:14;49160.03;;;-144.47;75.90
31585;BME280;18191;51.288;12.390;2022-12-18T17:20:04;49213.75;;;-144.47;77.42
31585;BME280;18191;51.288;12.390;2022-12-18T17:24:54;49177.94;;;-144.47;78.14
31585;BME280;18191;51.288;12.390;2022-12-18T17:29:44;49191.84;;;-144.47;78.16
31585;BME280;18191;51.288;12.390;2022-12-18T17:34:35;49158.03;;;-144.47;77.94
31585;BME280;18191;51.288;12.390;2022-12-18T17:39:26;49207.78;;;-144.47;77.25
31585;BME280;18191;51.288;12.390;2022-12-18T17:44:17;49195.84;;;-144.47;76.57
31585;BME280;18191;51.288;12.390;2022-12-18T17:49:08;49142.13;;;-144.47;77.57
31585;BME280;18191;51.288;12.390;2022-12-18T17:53:58;49160.03;;;-144.47;77.52
31585;BME280;18191;51.288;12.390;2022-12-18T17:58:48;49175.94;;;-144.47;76.83
31585;BME280;18191;51.288;12.390;2022-12-18T18:03:54;49144.09;;;-144.47;76.67
31585;BME280;18191;51.288;12.390;2022-12-18T18:08:49;49179.91;;;-144.47;77.45
31585;BME280;18191;51.288;12.390;2022-12-18T18:13:39;49094.38;;;-144.47;77.39
31585;BME280;18191;51.288;12.390;2022-12-18T18:18:48;49199.81;;;-144.47;76.40
31585;BME280;18191;51.288;12.390;2022-12-18T18:23:38;49169.97;;;-144.47;76.70
31585;BME280;18191;51.288;12.390;2022-12-18T18:28:29;49195.84;;;-144.47;76.42
31585;BME280;18191;51.288;12.390;2022-12-18T18:33:19;49175.94;;;-144.47;77.19
31585;BME280;18191;51.288;12.390;2022-12-18T18:38:09;49164.00;;;-144.47;77.95
31585;BME280;18191;51.288;12.390;2022-12-18T18:42:59;49189.88;;;-144.47;77.70
31585;BME280;18191;51.288;12.390;2022-12-18T18:47:49;49187.88;;;-144.47;76.82
31585;BME280;18191;51.288;12.390;2022-12-18T18:52:40;49175.94;;;-144.47;75.79
31585;BME280;18191;51.288;12.390;2022-12-18T18:57:30;49160.03;;;-144.47;76.62
31585;BME280;18191;51.288;12.390;2022-12-18T19:02:20;49171.97;;;-144.47;76.94
31585;BME280;18191;51.288;12.390;2022-12-18T19:07:10;49197.81;;;-144.47;77.35
31585;BME280;18191;51.288;12.390;2022-12-18T19:12:01;49187.88;;;-144.47;77.56
31585;BME280;18191;51.288;12.390;2022-12-18T19:17:10;49126.22;;;-144.47;76.48
31585;BME280;18191;51.288;12.390;2022-12-18T19:22:00;49195.84;;;-144.47;77.03
31585;BME280;18191;51.288;12.390;2022-12-18T19:26:51;49219.72;;;-144.47;77.30
31585;BME280;18191;51.288;12.390;2022-12-18T19:31:42;49187.88;;;-144.47;77.62
31585;BME280;18191;51.288;12.390;2022-12-18T19:36:34;49189.88;;;-144.47;77.66
31585;BME280;18191;51.288;12.390;2022-12-18T19:41:25;49195.84;;;-144.47;77.76
31585;BME280;18191;51.288;12.390;2022-12-18T19:46:17;49185.88;;;-144.47;74.90
31585;BME280;18191;51.288;12.390;2022-12-18T19:51:08;49156.03;;;-144.47;75.62
31585;BME280;18191;51.288;12.390;2022-12-18T19:56:03;49171.97;;;-144.47;75.72
31585;BME280;18191;51.288;12.390;2022-12-18T20:00:53;49183.91;;;-144.47;74.23
31585;BME280;18191;51.288;12.390;2022-12-18T20:05:44;49175.94;;;-144.47;75.26
31585;BME280;18191;51.288;12.390;2022-12-18T20:10:34;49175.94;;;-144.47;74.88
31585;BME280;18191;51.288;12.390;2022-12-18T20:15:24;49191.84;;;-144.47;75.19
31585;BME280;18191;51.288;12.390;2022-12-18T20:20:14;49183.91;;;-144.47;75.77
31585;BME280;18191;51.288;12.390;2022-12-18T20:25:05;49175.94;;;-144.47;76.39
31585;BME280;18191;51.288;12.390;2022-12-18T20:29:55;49154.06;;;-144.47;76.92
31585;BME280;18191;51.288;12.390;2022-12-18T20:34:45;49175.94;;;-144.47;76.91
31585;BME280;18191;51.288;12.390;2022-12-18T20:39:35;49144.09;;;-144.47;76.94
31585;BME280;18191;51.288;12.390;2022-12-18T20:44:26;49154.06;;;-144.47;77.22
31585;BME280;18191;51.288;12.390;2022-12-18T20:49:16;49195.84;;;-144.47;77.39
31585;BME280;18191;51.288;12.390;2022-12-18T20:54:06;49120.25;;;-144.47;78.00
31585;BME280;18191;51.288;12.390;2022-12-18T20:58:57;49195.84;;;-144.47;76.25
31585;BME280;18191;51.288;12.390;2022-12-18T21:03:48;49193.84;;;-144.47;74.21
31585;BME280;18191;51.288;12.390;2022-12-18T21:08:38;49191.84;;;-144.47;75.54
31585;BME280;18191;51.288;12.390;2022-12-18T21:13:28;49164.00;;;-144.47;75.05
31585;BME280;18191;51.288;12.390;2022-12-18T21:18:18;49203.78;;;-144.47;76.00
31585;BME280;18191;51.288;12.390;2022-12-18T21:23:09;49164.00;;;-144.47;75.77
31585;BME280;18191;51.288;12.390;2022-12-18T21:27:59;49140.13;;;-144.47;76.83
31585;BME280;18191;51.288;12.390;2022-12-18T21:32:50;49219.72;;;-144.47;77.27
31585;BME280;18191;51.288;12.390;2022-12-18T21:37:40;49126.22;;;-144.47;77.35
31585;BME280;18191;51.288;12.390;2022-12-18T21:42:30;49191.84;;;-144.47;76.97
31585;BME280;18191;51.288;12.390;2022-12-18T21:47:40;49148.09;;;-144.47;76.86
31585;BME280;18191;51.288;12.390;2022-12-18T21:52:30;49152.06;;;-144.47;76.80
31585;BME280;18191;51.288;12.390;2022-12-18T21:57:20;49171.97;;;-144.47;76.80
31585;BME280;18191;51.288;12.390;2022-12-18T22:02:15;49128.19;;;-144.47;76.91
31585;BME280;18191;51.288;12.390;2022-12-18T22:07:05;49181.91;;;-144.47;77.66
31585;BME280;18191;51.288;12.390;2022-12-18T22:11:56;49114.28;;;-144.47;77.69
31585;BME280;18191;51.288;12.390;2022-12-18T22:16:46;49203.78;;;-144.47;77.27
31585;BME280;18191;51.288;12.390;2022-12-18T22:21:38;49181.91;;;-144.47;77.50
31585;BME280;18191;51.288;12.390;2022-12-18T22:26:30;49164.00;;;-144.47;77.83
31585;BME280;18191;51.288;12.390;2022-12-18T22:31:20;49167.97;;;-144.47;77.84
31585;BME280;18191;51.288;12.390;2022-12-18T22:36:10;49197.81;;;-144.47;78.17
31585;BME280;18191;51.288;12.390;2022-12-18T22:41:07;49199.81;;;-144.47;78.17
31585;BME280;18191;51.288;12.390;2022-12-18T22:45:58;49183.91;;;-144.47;77.56
31585;BME280;18191;51.288;12.390;2022-12-18T22:50:48;49191.84;;;-144.47;76.45
31585;BME280;18191;51.288;12.390;2022-12-18T22:55:38;49183.91;;;-144.47;75.93
31585;BME280;18191;51.288;12.390;2022-12-18T23:00:28;49191.84;;;-144.47;77.69
31585;BME280;18191;51.288;12.390;2022-12-18T23:05:19;49197.81;;;-144.47;77.34
31585;BME280;18191;51.288;12.390;2022-12-18T23:10:09;49175.94;;;-144.47;76.53
31585;BME280;18191;51.288;12.390;2022-12-18T23:14:59;49175.94;;;-144.47;77.44
31585;BME280;18191;51.288;12.390;2022-12-18T23:19:49;49171.97;;;-144.47;77.70
31585;BME280;18191;51.288;12.390;2022-12-18T23:24:40;49152.06;;;-144.47;77.96
31585;BME280;18191;51.288;12.390;2022-12-18T23:29:31;49179.91;;;-144.47;77.14
31585;BME280;18191;51.288;12.390;2022-12-18T23:34:21;49193.84;;;-144.47;76.61
31585;BME280;18191;51.288;12.390;2022-12-18T23:39:11;49207.78;;;-144.47;77.07
31585;BME280;18191;51.288;12.390;2022-12-18T23:44:01;49211.75;;;-144.47;77.86
31585;BME280;18191;51.288;12.390;2022-12-18T23:48:52;49191.84;;;-144.47;77.87
31585;BME280;18191;51.288;12.390;2022-12-18T23:53:42;49142.13;;;-144.47;76.23
31585;BME280;18191;51.288;12.390;2022-12-18T23:58:33;49183.91;;;-144.47;77.48
